Flagstaff, Arizona
Current Conditions -  °F | °C
As of 4:57 AM on Monday 24 Nov 2014 (Local Time) from KFLG Reporting Station
Clear Clear  
Wind Chill: -5°   Ceiling: Unl
Heat Index: -2°   Visibility: 10mi
Dew Point: -20°   Wind: 5mph
Humidity: 24%   Direction: NA
Pressure: 30.19"   Gusts: NA
Location:  35.2°N, 111.65°W
Report Text: KFLG 241157Z AUTO VRB04KT 10SM CLR M02/M20 A3019 RMK AO2 SLP209 T10171200 11017 21106 56002 TSNO
Loading
Personal Weather Stations






























Interactive Weather Map New forecast layout! Learn more

10-Day Weather Forecast

Advertisements
Track Severe Weather on mobile